Time;durP1;ratioP1;P1;durP2;ratioP2;P2;SDS_P1;SDS_P2;PMS_P1;PMS_P2;Temp;Humidity;BMP_temperature;BMP_pressure;BME280_temperature;BME280_humidity;BME280_pressure;Samples;Min_cycle;Max_cycle;Signal;HPM_P1;HPM_P2
2023/01/16 00:01:53;;;;;;;;;3.67;2.00;;;;;8.08;68.88;99203.66;5058208;28;45497;-74
2023/01/16 00:04:19;;;;;;;;;1.33;1.00;;;;;8.22;68.52;99203.00;5057951;28;45416;-74
2023/01/16 00:06:44;;;;;;;;;1.33;0.33;;;;;8.40;68.80;99221.34;5057462;28;45197;-74
2023/01/16 00:09:10;;;;;;;;;1.00;1.00;;;;;8.12;68.91;99175.84;5080029;27;45508;-75
2023/01/16 00:11:35;;;;;;;;;1.67;1.67;;;;;8.40;68.95;99194.03;5096935;27;46831;-73
2023/01/16 00:14:01;;;;;;;;;2.67;1.67;;;;;8.42;69.01;99186.78;5112406;27;45462;-75
2023/01/16 00:16:26;;;;;;;;;3.67;3.00;;;;;8.14;69.42;99110.34;5113621;27;45581;-73
2023/01/16 00:18:52;;;;;;;;;2.00;1.00;;;;;8.53;68.71;99149.34;5095806;27;45463;-75
2023/01/16 00:21:19;;;;;;;;;2.00;2.00;;;;;8.45;69.05;99149.38;5096398;27;47469;-75
2023/01/16 00:23:44;;;;;;;;;1.00;1.00;;;;;8.26;69.22;99094.09;5098136;27;45468;-73
2023/01/16 00:26:11;;;;;;;;;2.33;1.33;;;;;8.42;69.38;99102.88;5113902;27;45241;-75
2023/01/16 00:28:37;;;;;;;;;3.00;1.33;;;;;8.52;69.63;99103.47;5098398;27;45390;-74
2023/01/16 00:31:06;;;;;;;;;2.00;1.00;;;;;8.01;69.34;99004.19;5097662;27;45759;-73
2023/01/16 00:33:33;;;;;;;;;1.67;1.00;;;;;8.03;69.41;98991.59;5097900;27;45260;-74
2023/01/16 00:36:00;;;;;;;;;2.00;2.00;;;;;8.51;69.51;99054.16;5097933;27;45264;-74
2023/01/16 00:38:25;;;;;;;;;2.67;1.67;;;;;8.11;69.41;98982.78;5101648;27;45355;-75
2023/01/16 00:40:51;;;;;;;;;2.00;1.00;;;;;8.34;69.22;98985.53;5103410;27;45529;-74
2023/01/16 00:43:16;;;;;;;;;2.00;1.00;;;;;8.27;69.37;98981.91;5103628;27;45466;-74
2023/01/16 00:45:42;;;;;;;;;3.67;2.00;;;;;8.40;68.95;98977.72;5101765;27;45308;-73
2023/01/16 00:48:08;;;;;;;;;0.00;0.00;;;;;8.21;69.24;98944.56;5101668;27;45342;-74
2023/01/16 00:50:33;;;;;;;;;3.00;1.00;;;;;8.08;69.26;98883.41;5101072;27;46494;-73
2023/01/16 00:52:59;;;;;;;;;1.33;1.00;;;;;8.49;69.25;98952.03;5101274;27;45393;-74
2023/01/16 00:55:24;;;;;;;;;0.67;0.33;;;;;7.79;69.11;98825.00;5101239;27;45314;-74
2023/01/16 00:57:50;;;;;;;;;3.00;1.00;;;;;8.35;69.07;98898.00;5100595;27;45386;-75
2023/01/16 01:00:19;;;;;;;;;1.00;1.00;;;;;8.39;69.02;98887.88;5099563;27;46781;-75
2023/01/16 01:02:45;;;;;;;;;3.00;1.00;;;;;7.90;69.18;98812.22;5099662;27;45759;-74
2023/01/16 01:05:10;;;;;;;;;2.00;2.00;;;;;7.52;68.62;98716.03;5101010;27;45310;-73
2023/01/16 01:07:36;;;;;;;;;1.67;1.00;;;;;8.49;68.93;98859.34;5103658;27;45188;-74
2023/01/16 01:10:01;;;;;;;;;1.00;1.00;;;;;8.50;68.91;98837.16;5100991;27;45469;-74
2023/01/16 01:12:26;;;;;;;;;1.33;1.00;;;;;7.48;68.77;98685.66;5100868;27;45260;-73
2023/01/16 01:14:52;;;;;;;;;0.00;0.00;;;;;7.64;69.00;98668.88;5100489;27;49756;-73
2023/01/16 01:17:17;;;;;;;;;2.00;1.00;;;;;7.87;69.10;98727.06;5101059;27;45444;-72
2023/01/16 01:19:42;;;;;;;;;1.67;0.33;;;;;7.88;68.72;98697.78;5100587;27;45724;-74
2023/01/16 01:22:08;;;;;;;;;3.00;2.00;;;;;8.43;68.22;98751.50;5100868;27;45394;-74
2023/01/16 01:24:33;;;;;;;;;0.67;0.67;;;;;8.44;68.69;98746.03;5102275;27;45372;-74
2023/01/16 01:26:59;;;;;;;;;1.00;1.00;;;;;8.37;68.31;98694.75;5101592;27;45306;-73
2023/01/16 01:29:24;;;;;;;;;0.33;0.33;;;;;8.43;68.45;98680.00;5099745;27;48450;-74
2023/01/16 01:31:49;;;;;;;;;1.67;1.67;;;;;8.23;67.99;98656.66;5100571;27;45403;-74
2023/01/16 01:34:15;;;;;;;;;0.33;0.33;;;;;7.45;68.29;98503.59;5099181;27;45578;-74
2023/01/16 01:36:40;;;;;;;;;1.00;1.00;;;;;8.67;68.59;98674.44;5100803;27;45274;-73
2023/01/16 01:39:06;;;;;;;;;2.67;2.33;;;;;8.16;68.17;98564.91;5100290;27;46356;-74
2023/01/16 01:41:31;;;;;;;;;0.00;0.00;;;;;8.53;68.22;98612.50;5116404;27;45377;-73
2023/01/16 01:43:57;;;;;;;;;0.00;0.00;;;;;8.13;68.25;98536.16;5100586;27;45523;-72
2023/01/16 01:46:42;;;;;;;;;0.33;0.33;;;;;8.77;68.54;98614.03;5100904;27;45426;-72
2023/01/16 01:49:23;;;;;;;;;3.33;1.33;;;;;8.50;68.41;98559.09;5099806;27;46520;-74
2023/01/16 01:51:51;;;;;;;;;0.00;0.00;;;;;7.82;69.64;98438.44;5100060;27;45345;-73
2023/01/16 01:54:23;;;;;;;;;1.00;1.00;;;;;8.63;69.60;98558.44;5100536;27;45573;-73
2023/01/16 01:56:49;;;;;;;;;1.00;1.00;;;;;8.62;69.99;98536.44;5100706;27;45423;-74
2023/01/16 01:59:20;;;;;;;;;1.00;1.00;;;;;8.38;70.21;98483.78;5099807;27;45477;-74
2023/01/16 02:01:46;;;;;;;;;1.00;1.00;;;;;8.18;69.95;98441.97;5100281;27;45551;-76
2023/01/16 02:04:25;;;;;;;;;0.00;0.00;;;;;7.50;70.60;98320.63;5116175;27;45289;-74
2023/01/16 02:06:55;;;;;;;;;1.00;0.00;;;;;8.21;71.22;98430.22;5100284;27;45659;-75
2023/01/16 02:09:22;;;;;;;;;2.00;0.00;;;;;7.68;71.11;98309.69;5098499;27;47104;-73
2023/01/16 02:12:02;;;;;;;;;1.00;0.00;;;;;8.31;71.66;98416.66;5099831;27;45346;-73
2023/01/16 02:14:30;;;;;;;;;1.00;1.00;;;;;8.28;71.95;98428.44;5116651;27;45229;-74
2023/01/16 02:20:24;;;;;;;;;4.00;1.67;;;;;8.48;72.89;98428.69;5099563;27;45877;-73
2023/01/16 02:23:11;;;;;;;;;0.33;0.33;;;;;8.45;73.48;98407.91;5099618;27;45330;-73
2023/01/16 02:26:08;;;;;;;;;1.33;1.33;;;;;8.38;74.09;98396.41;5099475;27;45631;-73
2023/01/16 02:28:53;;;;;;;;;1.00;1.00;;;;;8.28;74.50;98385.28;5099752;27;45301;-72
2023/01/16 02:31:34;;;;;;;;;2.00;1.00;;;;;8.16;75.17;98366.41;5099366;27;46892;-75
2023/01/16 02:34:36;;;;;;;;;1.00;0.00;;;;;8.13;75.49;98357.00;5099465;27;45322;-74
2023/01/16 02:37:22;;;;;;;;;0.00;0.00;;;;;8.07;75.28;98346.34;5098108;27;45388;-74
2023/01/16 02:40:02;;;;;;;;;2.67;0.33;;;;;8.03;75.44;98343.28;5099718;27;45529;-73
2023/01/16 02:42:43;;;;;;;;;1.33;0.00;;;;;7.97;75.50;98320.19;5097979;27;47789;-74
2023/01/16 02:45:23;;;;;;;;;2.00;2.00;;;;;7.99;75.79;98298.81;5099086;27;45506;-74
2023/01/16 02:48:21;;;;;;;;;1.00;0.00;;;;;7.86;75.61;98284.47;5099388;27;45516;-73
2023/01/16 02:51:15;;;;;;;;;0.67;0.67;;;;;7.12;75.94;98150.81;5099703;27;45487;-74
2023/01/16 02:54:10;;;;;;;;;0.00;0.00;;;;;7.82;75.79;98254.09;5097599;27;47364;-73
2023/01/16 02:56:45;;;;;;;;;0.00;0.00;;;;;7.12;76.08;98142.88;5099089;27;45472;-73
2023/01/16 02:59:14;;;;;;;;;0.00;0.00;;;;;7.82;76.20;98246.19;5114026;27;45601;-73
2023/01/16 03:01:40;;;;;;;;;0.00;0.00;;;;;7.82;76.16;98229.47;5099381;27;45543;-74
2023/01/16 03:04:40;;;;;;;;;0.00;0.00;;;;;7.84;76.44;98233.56;5098804;27;46922;-73
2023/01/16 03:07:18;;;;;;;;;0.00;0.00;;;;;7.80;76.47;98218.25;5099105;27;45269;-73
2023/01/16 03:09:58;;;;;;;;;0.00;0.00;;;;;7.35;76.54;98140.91;5100092;27;45562;-72
2023/01/16 03:12:49;;;;;;;;;0.00;0.00;;;;;7.82;76.42;98205.69;5097909;27;45675;-73
2023/01/16 03:15:26;;;;;;;;;1.33;0.00;;;;;7.73;76.93;98181.16;5114781;27;46586;-73
2023/01/16 03:18:09;;;;;;;;;0.00;0.00;;;;;7.80;76.77;98186.50;5114574;27;45809;-73
2023/01/16 03:20:56;;;;;;;;;0.33;0.33;;;;;7.54;76.64;98153.50;5097705;27;45585;-73
2023/01/16 03:23:25;;;;;;;;;0.33;0.00;;;;;7.68;77.23;98162.41;5099712;27;45301;-73
2023/01/16 03:26:10;;;;;;;;;0.00;0.00;;;;;6.94;77.46;98043.72;5098611;27;46077;-74
2023/01/16 03:28:41;;;;;;;;;2.00;0.00;;;;;6.89;77.38;98024.16;5098604;27;45350;-73
2023/01/16 03:31:33;;;;;;;;;0.33;0.00;;;;;7.65;77.68;98162.78;5098504;27;45358;-72
2023/01/16 03:34:12;;;;;;;;;0.67;0.00;;;;;7.73;77.31;98144.13;5114706;27;45461;-72
2023/01/16 03:36:58;;;;;;;;;0.00;0.00;;;;;7.20;77.62;98088.09;5098483;27;45782;-73
2023/01/16 03:39:36;;;;;;;;;0.00;0.00;;;;;7.52;77.54;98126.44;5098534;27;45532;-72
2023/01/16 03:42:08;;;;;;;;;0.00;0.00;;;;;7.30;77.82;98062.19;5114415;27;45471;-72
2023/01/16 03:44:41;;;;;;;;;0.00;0.00;;;;;6.56;77.72;97981.56;5097336;27;45669;-72
2023/01/16 03:47:12;;;;;;;;;0.00;0.00;;;;;7.55;77.91;98104.91;5098462;27;46313;-74
2023/01/16 03:49:43;;;;;;;;;0.00;0.00;;;;;6.67;77.99;97959.97;5096892;27;45543;-74
2023/01/16 03:52:14;;;;;;;;;0.00;0.00;;;;;7.59;77.81;98111.44;5114214;27;45358;-73
2023/01/16 03:54:57;;;;;;;;;0.00;0.00;;;;;7.48;78.31;98098.75;5097643;27;45494;-73
2023/01/16 03:57:28;;;;;;;;;0.00;0.00;;;;;6.58;77.93;97937.31;5098063;27;46229;-74
2023/01/16 03:59:54;;;;;;;;;0.00;0.00;;;;;6.63;78.32;97921.75;5096767;27;45270;-74
2023/01/16 04:02:38;;;;;;;;;0.67;0.00;;;;;7.57;77.28;98081.75;5098095;27;45433;-74
2023/01/16 04:05:20;;;;;;;;;0.67;0.00;;;;;7.48;77.25;98055.66;5098482;27;45583;-74
2023/01/16 04:07:59;;;;;;;;;0.00;0.00;;;;;7.52;76.89;98062.19;5097597;27;45624;-73
2023/01/16 04:10:31;;;;;;;;;0.00;0.00;;;;;7.56;77.23;98051.03;5097778;27;45355;-72
2023/01/16 04:13:02;;;;;;;;;0.00;0.00;;;;;7.55;77.20;98041.47;5097968;27;45386;-72
2023/01/16 04:15:31;;;;;;;;;0.00;0.00;;;;;7.12;76.71;97955.31;5098194;27;45192;-73
2023/01/16 04:17:58;;;;;;;;;0.00;0.00;;;;;7.62;76.08;98021.19;5097590;27;46498;-74
2023/01/16 04:20:25;;;;;;;;;0.00;0.00;;;;;7.01;75.48;97923.13;5096284;27;45476;-73
2023/01/16 04:22:51;;;;;;;;;0.00;0.00;;;;;6.83;75.36;97893.72;5098000;27;45225;-73
2023/01/16 04:25:18;;;;;;;;;0.00;0.00;;;;;7.28;75.78;97965.59;5098213;27;45336;-72
2023/01/16 04:27:43;;;;;;;;;1.00;0.00;;;;;7.44;74.89;97969.81;5098113;27;45868;-73
2023/01/16 04:30:10;;;;;;;;;0.00;0.00;;;;;7.30;74.90;97956.47;5101454;27;45359;-72
2023/01/16 04:32:35;;;;;;;;;0.00;0.00;;;;;7.43;74.86;97966.34;5097936;27;45348;-72
2023/01/16 04:35:00;;;;;;;;;0.00;0.00;;;;;7.53;74.22;97985.31;5097795;27;45275;-74
2023/01/16 04:37:26;;;;;;;;;0.00;0.00;;;;;6.62;73.97;97817.97;5113141;27;45623;-73
2023/01/16 04:39:52;;;;;;;;;0.33;0.00;;;;;7.29;74.63;97933.69;5096504;27;45714;-74
2023/01/16 04:42:18;;;;;;;;;0.00;0.00;;;;;7.24;75.33;97922.91;5097611;27;45515;-73
2023/01/16 04:44:43;;;;;;;;;0.00;0.00;;;;;7.47;74.92;97953.56;5096658;27;45332;-73
2023/01/16 04:47:09;;;;;;;;;0.00;0.00;;;;;6.52;74.90;97774.44;5097446;27;46760;-74
2023/01/16 04:49:34;;;;;;;;;0.33;0.00;;;;;7.49;75.54;97931.19;5097734;27;45231;-74
2023/01/16 04:52:00;;;;;;;;;0.00;0.00;;;;;7.38;75.76;97897.38;5113459;27;45201;-74
2023/01/16 04:54:25;;;;;;;;;0.00;0.00;;;;;6.67;75.29;97785.72;5098030;27;45269;-72
2023/01/16 04:56:50;;;;;;;;;2.33;1.33;;;;;7.12;75.77;97828.50;5098348;27;46990;-72
2023/01/16 04:59:16;;;;;;;;;0.00;0.00;;;;;7.56;75.85;97873.06;5097573;27;45254;-73
2023/01/16 05:01:45;;;;;;;;;0.00;0.00;;;;;7.21;75.84;97790.34;5096507;27;45546;-73
2023/01/16 05:04:18;;;;;;;;;2.00;0.67;;;;;7.55;75.12;97813.28;5097764;27;45393;-72
2023/01/16 05:06:43;;;;;;;;;0.00;0.00;;;;;7.19;75.91;97763.28;5097017;27;46208;-74
2023/01/16 05:09:09;;;;;;;;;0.00;0.00;;;;;7.17;76.06;97749.47;5097254;27;45252;-73
2023/01/16 05:11:34;;;;;;;;;2.67;0.00;;;;;6.87;76.04;97673.13;5097350;27;45527;-74
2023/01/16 05:14:00;;;;;;;;;0.00;0.00;;;;;7.10;76.14;97709.00;5095972;27;45357;-74
2023/01/16 05:16:26;;;;;;;;;0.00;0.00;;;;;7.74;76.68;97790.59;5097464;27;46223;-72
2023/01/16 05:18:51;;;;;;;;;0.00;0.00;;;;;6.97;76.53;97636.59;5095908;27;45632;-73
2023/01/16 05:21:17;;;;;;;;;1.00;1.00;;;;;7.53;76.70;97722.78;5096041;27;45331;-73
2023/01/16 05:23:42;;;;;;;;;1.00;0.00;;;;;7.21;76.08;97645.03;5099601;27;45377;-74
2023/01/16 05:26:08;;;;;;;;;0.00;0.00;;;;;8.04;76.12;97768.09;5100430;27;45666;-73
2023/01/16 05:28:34;;;;;;;;;1.00;1.00;;;;;8.20;75.89;97775.63;5100351;27;45314;-76
2023/01/16 05:31:00;;;;;;;;;0.00;0.00;;;;;8.26;75.68;97767.94;5100732;27;45493;-75
2023/01/16 05:33:26;;;;;;;;;0.00;0.00;;;;;8.13;75.62;97752.84;5100413;27;45233;-73
2023/01/16 05:35:52;;;;;;;;;2.00;1.00;;;;;7.89;75.26;97709.25;5099942;27;47687;-75
2023/01/16 05:38:17;;;;;;;;;0.00;0.00;;;;;7.90;75.42;97714.34;5100527;27;45433;-74
2023/01/16 05:40:43;;;;;;;;;1.00;0.00;;;;;8.03;75.73;97715.41;5100224;27;45528;-71
2023/01/16 05:43:10;;;;;;;;;2.00;0.00;;;;;7.83;75.83;97686.25;5100555;27;45529;-75
2023/01/16 05:45:35;;;;;;;;;2.00;0.33;;;;;8.06;75.69;97699.94;5115822;27;47475;-73
2023/01/16 05:48:01;;;;;;;;;1.00;0.00;;;;;7.76;74.88;97661.63;5100243;27;45393;-73
2023/01/16 05:50:27;;;;;;;;;0.00;0.00;;;;;8.08;74.78;97692.59;5100143;27;45522;-73
2023/01/16 05:52:52;;;;;;;;;1.00;0.00;;;;;8.01;74.29;97694.44;5099911;27;45425;-74
2023/01/16 05:55:18;;;;;;;;;0.00;0.00;;;;;7.92;74.41;97677.94;5100076;27;46652;-72
2023/01/16 05:57:43;;;;;;;;;0.00;0.00;;;;;7.86;74.29;97667.34;5100172;27;45240;-74
2023/01/16 06:00:09;;;;;;;;;2.33;0.00;;;;;7.93;74.29;97673.44;5099226;27;45431;-71
2023/01/16 06:02:35;;;;;;;;;1.67;0.67;;;;;7.70;74.41;97623.59;5101400;27;45322;-71
2023/01/16 06:05:01;;;;;;;;;1.00;1.00;;;;;7.51;73.98;97584.72;5098441;27;48624;-73
2023/01/16 06:07:26;;;;;;;;;1.00;1.00;;;;;8.07;73.89;97663.69;5099793;27;45561;-73
2023/01/16 06:09:51;;;;;;;;;0.00;0.00;;;;;8.14;73.95;97665.31;5098371;27;45551;-71
2023/01/16 06:12:18;;;;;;;;;3.67;1.00;;;;;8.04;73.85;97656.97;5099814;27;45220;-74
2023/01/16 06:14:44;;;;;;;;;4.00;0.67;;;;;7.91;74.31;97628.69;5099631;27;46866;-73
2023/01/16 06:17:10;;;;;;;;;0.00;0.00;;;;;8.13;73.79;97647.00;5099309;27;45432;-74
2023/01/16 06:19:36;;;;;;;;;1.00;0.00;;;;;8.00;73.72;97631.94;5099882;27;45373;-73
2023/01/16 06:22:01;;;;;;;;;0.00;0.00;;;;;7.25;73.61;97506.22;5100165;27;45420;-72
2023/01/16 06:24:26;;;;;;;;;0.67;0.00;;;;;7.08;73.02;97479.38;5099668;27;45737;-72
2023/01/16 06:26:52;;;;;;;;;3.00;0.67;;;;;7.86;72.81;97582.72;5099562;27;45424;-73
2023/01/16 06:29:17;;;;;;;;;2.00;1.00;;;;;7.69;72.43;97566.44;5097970;27;45584;-73
2023/01/16 06:31:43;;;;;;;;;1.00;1.00;;;;;8.11;72.96;97626.03;5098277;27;45331;-74
2023/01/16 06:34:08;;;;;;;;;2.00;2.00;;;;;8.11;73.05;97615.44;5098177;27;45457;-74
2023/01/16 06:36:34;;;;;;;;;1.00;0.00;;;;;8.12;72.77;97590.63;5100130;27;45367;-74
2023/01/16 06:38:59;;;;;;;;;0.67;0.33;;;;;8.13;72.51;97608.13;5099657;27;45344;-75
2023/01/16 06:41:25;;;;;;;;;0.00;0.00;;;;;8.13;72.49;97602.00;5100010;27;45161;-72
2023/01/16 06:43:50;;;;;;;;;0.00;0.00;;;;;8.10;72.39;97613.81;5089182;27;45421;-71
2023/01/16 06:46:15;;;;;;;;;3.00;1.67;;;;;7.16;72.35;97455.41;5078730;27;45483;-72
2023/01/16 06:48:41;;;;;;;;;1.00;1.00;;;;;8.00;72.49;97584.31;5077202;28;45251;-73
2023/01/16 06:51:09;;;;;;;;;0.67;0.67;;;;;7.90;72.42;97560.13;5072900;28;45398;-72
2023/01/16 06:53:35;;;;;;;;;1.33;0.00;;;;;7.98;72.52;97573.13;5058280;28;45670;-74
2023/01/16 06:56:00;;;;;;;;;0.00;0.00;;;;;7.85;72.20;97547.50;5059195;28;45448;-73
2023/01/16 06:58:25;;;;;;;;;0.67;0.67;;;;;7.87;72.30;97537.53;5064494;28;45474;-74
2023/01/16 07:00:51;;;;;;;;;2.00;0.67;;;;;7.55;72.75;97510.09;5078361;28;45395;-74
2023/01/16 07:03:17;;;;;;;;;1.33;1.33;;;;;7.77;72.64;97536.31;5073554;28;47801;-74
2023/01/16 07:05:44;;;;;;;;;4.00;1.00;;;;;7.83;72.94;97514.38;5076100;28;45676;-73
2023/01/16 07:08:09;;;;;;;;;0.67;0.33;;;;;7.49;71.93;97444.84;5077018;28;45283;-74
2023/01/16 07:10:35;;;;;;;;;0.33;0.33;;;;;8.04;72.22;97522.06;5078220;28;45220;-73
2023/01/16 07:13:01;;;;;;;;;6.67;6.33;;;;;8.00;72.55;97512.06;5077847;27;45556;-75
2023/01/16 07:23:50;;;;;;;;;2.00;0.00;;;;;8.11;74.46;97485.81;5058487;28;45393;-76
2023/01/16 07:26:19;;;;;;;;;2.00;0.00;;;;;7.22;74.73;97361.31;5057720;28;45548;-74
2023/01/16 07:28:45;;;;;;;;;3.33;1.00;;;;;8.09;74.63;97487.84;5058176;28;45419;-75
2023/01/16 07:31:11;;;;;;;;;2.00;0.00;;;;;7.63;74.41;97403.34;5059803;28;45353;-75
2023/01/16 07:33:37;;;;;;;;;8.00;3.00;;;;;7.97;74.97;97457.75;5056240;28;48331;-74
2023/01/16 07:36:02;;;;;;;;;2.00;1.00;;;;;7.69;74.61;97418.38;5073345;28;45982;-76
2023/01/16 07:38:28;;;;;;;;;1.00;0.00;;;;;7.76;74.53;97402.47;5058326;28;45490;-75
2023/01/16 07:40:53;;;;;;;;;2.00;0.00;;;;;8.12;74.44;97441.63;5057424;28;45478;-75
2023/01/16 07:43:19;;;;;;;;;14.33;6.00;;;;;8.15;74.13;97447.31;5056534;28;46031;-75
2023/01/16 07:45:48;;;;;;;;;2.00;0.00;;;;;7.00;74.40;97260.34;5057437;28;45166;-75
2023/01/16 07:48:14;;;;;;;;;2.33;0.67;;;;;8.08;74.89;97438.59;5066576;27;45374;-76
2023/01/16 07:50:39;;;;;;;;;3.00;1.00;;;;;8.11;74.75;97438.19;5078486;27;45371;-75
2023/01/16 07:53:04;;;;;;;;;0.00;0.00;;;;;7.86;74.32;97377.22;5066877;28;45491;-75
2023/01/16 07:55:29;;;;;;;;;3.00;1.00;;;;;8.02;74.34;97396.31;5059744;28;60274;-77
2023/01/16 07:57:55;;;;;;;;;1.33;1.00;;;;;7.90;74.28;97378.44;5064835;28;45609;-75
2023/01/16 08:00:20;;;;;;;;;6.00;1.67;;;;;8.04;74.15;97403.00;5077530;28;46590;-75
2023/01/16 08:02:46;;;;;;;;;3.67;0.33;;;;;8.03;74.52;97388.16;5077222;28;47781;-75
2023/01/16 08:05:11;;;;;;;;;1.67;1.67;;;;;7.42;74.25;97300.50;5076080;28;51236;-76
2023/01/16 08:07:37;;;;;;;;;4.67;2.00;;;;;5.37;73.82;96982.34;5076161;28;45392;-75
2023/01/16 08:10:04;;;;;;;;;0.00;0.00;;;;;7.79;74.45;97346.53;5077260;27;46182;-74
2023/01/16 08:12:29;;;;;;;;;0.00;0.00;;;;;7.58;74.97;97297.38;5061616;28;45679;-78
2023/01/16 08:14:54;;;;;;;;;0.00;0.00;;;;;7.03;75.40;97216.91;5058936;28;45230;-77
2023/01/16 08:17:20;;;;;;;;;0.00;0.00;;;;;7.14;75.35;97216.25;5056264;28;45293;-73
2023/01/16 08:19:45;;;;;;;;;0.00;0.00;;;;;7.84;75.06;97320.28;5059309;28;45376;-70
2023/01/16 08:22:10;;;;;;;;;0.00;0.00;;;;;7.97;74.87;97346.66;5057501;28;51080;-73
2023/01/16 08:24:36;;;;;;;;;2.33;0.00;;;;;7.97;74.83;97349.31;5058519;28;45228;-74
2023/01/16 08:27:02;;;;;;;;;0.00;0.00;;;;;7.97;74.65;97337.91;5055804;28;45391;-73
2023/01/16 08:29:28;;;;;;;;;0.00;0.00;;;;;7.94;74.45;97337.31;5055546;28;47194;-73
2023/01/16 08:31:53;;;;;;;;;1.00;0.00;;;;;7.81;73.93;97294.25;5057460;28;45695;-72
2023/01/16 08:34:18;;;;;;;;;2.33;0.00;;;;;7.89;73.61;97318.63;5058110;28;45257;-74
2023/01/16 08:36:44;;;;;;;;;12.00;7.67;;;;;7.77;73.98;97300.97;5073121;28;45420;-74
2023/01/16 08:39:10;;;;;;;;;1.00;1.00;;;;;7.82;72.09;97322.34;5057845;28;45292;-76
2023/01/16 08:52:38;;;;;;;;;0.00;0.00;;;;;7.87;70.40;97301.34;5056966;28;45309;-75
2023/01/16 08:55:05;;;;;;;;;0.00;0.00;;;;;7.84;69.73;97315.81;5073272;28;46771;-75
2023/01/16 08:57:30;;;;;;;;;0.00;0.00;;;;;7.43;68.27;97286.28;5057812;28;45466;-72
2023/01/16 08:59:56;;;;;;;;;0.00;0.00;;;;;7.65;68.05;97350.25;5061093;28;45224;-78
2023/01/16 09:02:23;;;;;;;;;2.33;0.00;;;;;7.65;68.43;97319.34;5060200;28;46594;-73
2023/01/16 09:04:49;;;;;;;;;0.00;0.00;;;;;7.49;68.84;97283.59;5078340;28;45578;-74
2023/01/16 09:07:15;;;;;;;;;0.67;0.00;;;;;7.57;68.21;97330.94;5080666;28;45416;-74
2023/01/16 09:09:41;;;;;;;;;0.00;0.00;;;;;7.04;68.45;97239.66;5080053;28;45524;-73
2023/01/16 09:14:54;;;;;;;;;0.00;0.00;;;;;7.75;68.09;97353.25;5079940;28;45567;-74
2023/01/16 09:17:20;;;;;;;;;3.00;3.00;;;;;7.78;68.10;97352.84;5070315;27;45447;-75
2023/01/16 09:19:45;;;;;;;;;2.33;1.33;;;;;7.72;68.68;97351.03;5041745;28;45615;-75
2023/01/16 09:22:11;;;;;;;;;0.00;0.00;;;;;7.23;68.53;97279.22;5060098;28;46371;-75
2023/01/16 09:24:37;;;;;;;;;1.00;0.67;;;;;7.42;68.79;97303.97;5041472;28;45168;-75
2023/01/16 09:27:03;;;;;;;;;1.00;1.00;;;;;7.28;68.68;97274.13;5060093;28;45541;-74
2023/01/16 09:29:28;;;;;;;;;0.00;0.00;;;;;7.55;67.86;97311.84;5042328;28;45638;-73
2023/01/16 09:31:54;;;;;;;;;0.00;0.00;;;;;7.92;67.78;97375.56;5041511;28;45435;-75
2023/01/16 09:34:19;;;;;;;;;2.33;1.67;;;;;7.73;67.81;97344.72;5041400;28;45406;-75
2023/01/16 09:36:44;;;;;;;;;7.00;7.00;;;;;7.80;67.99;97356.06;5059851;28;45440;-77
2023/01/16 09:39:10;;;;;;;;;8.00;6.00;;;;;8.33;68.00;97433.41;5047806;28;45309;-76
2023/01/16 09:44:43;;;;;;;;;1.00;1.00;;;;;8.15;67.28;97428.78;5039245;28;45413;-75
2023/01/16 09:47:09;;;;;;;;;0.67;0.00;;;;;8.40;67.45;97473.09;5037841;28;45634;-75
2023/01/16 09:49:48;;;;;;;;;1.33;1.00;;;;;8.23;67.56;97472.75;5039481;28;45179;-76
2023/01/16 10:00:43;;;;;;;;;1.00;0.00;;;;;8.03;67.44;97443.72;5062692;28;45336;-73
2023/01/16 10:03:09;;;;;;;;;0.00;0.00;;;;;7.51;67.25;97352.13;5064005;28;45965;-73
2023/01/16 10:05:57;;;;;;;;;0.67;0.33;;;;;8.65;67.10;97519.06;5042599;28;45447;-75
2023/01/16 10:08:30;;;;;;;;;0.67;0.67;;;;;8.60;67.56;97513.56;5055993;28;45455;-77
2023/01/16 10:11:08;;;;;;;;;0.00;0.00;;;;;8.81;67.11;97542.41;5039221;28;45383;-75
2023/01/16 10:13:55;;;;;;;;;1.00;1.00;;;;;8.92;66.67;97566.59;5020648;28;45498;-74
2023/01/16 10:16:31;;;;;;;;;2.00;2.00;;;;;8.95;66.55;97587.38;5038607;28;45471;-75
2023/01/16 10:19:11;;;;;;;;;5.00;3.00;;;;;8.03;66.95;97417.25;5026635;28;45238;-74
2023/01/16 10:21:39;;;;;;;;;0.00;0.00;;;;;9.01;66.79;97583.88;5038729;28;45227;-74
2023/01/16 10:24:49;;;;;;;;;1.00;1.00;;;;;8.98;67.28;97602.84;5020781;28;48861;-74
2023/01/16 10:27:28;;;;;;;;;1.00;1.00;;;;;8.41;67.90;97532.97;5020704;28;45558;-73
2023/01/16 10:30:00;;;;;;;;;0.00;0.00;;;;;8.96;68.51;97626.09;5035943;28;45255;-73
2023/01/16 10:32:36;;;;;;;;;1.00;1.00;;;;;8.94;69.53;97622.84;5059187;28;45241;-73
2023/01/16 10:35:11;;;;;;;;;2.00;2.00;;;;;8.86;70.04;97626.53;5040916;28;47624;-75
2023/01/16 10:37:38;;;;;;;;;2.00;2.00;;;;;8.84;69.86;97645.28;5058969;28;45511;-74
2023/01/16 10:40:25;;;;;;;;;1.67;1.00;;;;;8.05;69.40;97536.91;5040941;28;45522;-76
2023/01/16 10:51:15;;;;;;;;;0.00;0.00;;;;;7.13;67.41;97466.38;5038633;28;46826;-73
2023/01/16 10:53:41;;;;;;;;;0.00;0.00;;;;;8.65;66.58;97719.50;5024425;28;45408;-73
2023/01/16 10:56:06;;;;;;;;;1.00;0.00;;;;;8.62;66.84;97728.69;5058447;28;46448;-74
2023/01/16 10:58:40;;;;;;;;;1.33;1.33;;;;;8.38;66.39;97695.66;5057761;28;45625;-72
2023/01/16 11:01:15;;;;;;;;;0.00;0.00;;;;;8.49;66.37;97720.72;5058204;28;45499;-71
2023/01/16 11:03:45;;;;;;;;;0.00;0.00;;;;;8.10;66.07;97664.09;5054885;28;45352;-71
2023/01/16 11:06:13;;;;;;;;;0.00;0.00;;;;;8.64;66.65;97766.34;5037785;28;45823;-72
2023/01/16 11:08:41;;;;;;;;;1.67;1.00;;;;;7.31;66.26;97566.19;5039725;28;45467;-74
2023/01/16 11:18:28;;;;;;;;;3.33;3.33;;;;;8.58;66.62;97784.88;5046045;28;45261;-72
2023/01/16 11:19:28;;;;;;;;;0.00;0.00;;;;;7.36;67.74;97653.59;5059241;28;45370;-74
2023/01/16 11:21:58;;;;;;;;;0.00;0.00;;;;;8.50;67.07;97815.03;5074545;28;45266;-74
2023/01/16 11:24:32;;;;;;;;;0.00;0.00;;;;;7.84;67.66;97738.97;5071404;27;45379;-76
2023/01/16 11:26:58;;;;;;;;;1.00;1.00;;;;;8.35;67.84;97831.09;5062683;27;48351;-73
2023/01/16 11:29:30;;;;;;;;;0.00;0.00;;;;;8.37;67.40;97844.13;5068171;27;45814;-75
2023/01/16 11:31:59;;;;;;;;;0.00;0.00;;;;;7.43;67.60;97694.09;5078469;27;45394;-74
2023/01/16 11:34:28;;;;;;;;;0.33;0.33;;;;;7.38;68.19;97695.69;5069739;28;45482;-75
2023/01/16 11:37:02;;;;;;;;;1.33;1.00;;;;;7.79;68.02;97767.81;5060605;28;46264;-75
2023/01/16 11:39:31;;;;;;;;;1.00;1.00;;;;;8.47;68.16;97892.22;5066964;28;45558;-73
2023/01/16 11:41:58;;;;;;;;;1.00;1.00;;;;;7.70;68.57;97739.13;5063518;28;45479;-76
2023/01/16 11:47:25;;;;;;;;;0.00;0.00;;;;;8.57;67.83;97884.69;5059400;28;45471;-76
2023/01/16 11:49:53;;;;;;;;;1.00;1.00;;;;;8.07;68.04;97812.69;5064210;28;45493;-74
2023/01/16 11:52:29;;;;;;;;;1.00;1.00;;;;;8.03;68.04;97816.75;5075738;28;45340;-73
2023/01/16 11:55:09;;;;;;;;;1.00;0.00;;;;;8.60;67.53;97913.41;5065614;28;45269;-73
2023/01/16 11:57:43;;;;;;;;;1.67;1.67;;;;;8.13;67.27;97838.34;5072757;28;46334;-75
2023/01/16 12:00:19;;;;;;;;;0.00;0.00;;;;;8.60;66.58;97904.66;5063567;28;45493;-74
2023/01/16 12:02:54;;;;;;;;;0.00;0.00;;;;;8.72;66.83;97933.00;5063519;28;45462;-74
2023/01/16 12:08:17;;;;;;;;;0.00;0.00;;;;;8.82;65.78;97949.34;5078853;28;45426;-77
2023/01/16 12:10:52;;;;;;;;;1.00;1.00;;;;;8.39;65.33;97901.13;5068966;28;45490;-75
2023/01/16 12:16:21;;;;;;;;;1.00;1.00;;;;;8.16;65.49;97847.69;5065903;28;45621;-72
2023/01/16 12:19:28;;;;;;;;;0.00;0.00;;;;;9.05;65.82;97977.28;5058065;28;46655;-75
2023/01/16 12:21:59;;;;;;;;;1.00;1.00;;;;;9.09;65.40;97997.88;5056071;28;45382;-73
2023/01/16 12:24:46;;;;;;;;;0.67;0.67;;;;;9.06;65.39;98006.25;5046600;28;45447;-76
2023/01/16 12:27:33;;;;;;;;;2.00;2.00;;;;;8.97;65.77;98015.38;5041524;28;45524;-75
2023/01/16 12:30:06;;;;;;;;;2.33;2.00;;;;;8.74;66.11;97991.88;5031435;28;46214;-72
2023/01/16 12:33:12;;;;;;;;;2.00;2.00;;;;;9.02;66.50;98014.81;5041351;28;45325;-75
2023/01/16 12:35:53;;;;;;;;;0.00;0.00;;;;;9.03;66.20;98024.38;5017674;28;45375;-71
2023/01/16 12:38:27;;;;;;;;;1.00;0.00;;;;;8.16;66.49;97901.44;5050113;28;45575;-72
2023/01/16 12:44:15;;;;;;;;;2.00;0.33;;;;;8.36;67.33;97969.53;5059097;28;45479;-74
2023/01/16 12:47:23;;;;;;;;;0.00;0.00;;;;;8.87;67.42;98065.31;5022568;28;45329;-75
2023/01/16 12:49:52;;;;;;;;;1.00;1.00;;;;;7.93;67.08;97922.91;5046930;28;45297;-73
2023/01/16 12:52:39;;;;;;;;;1.00;1.00;;;;;8.23;67.02;97994.94;5059914;28;45633;-75
2023/01/16 12:55:07;;;;;;;;;6.00;6.00;;;;;8.64;66.61;98112.47;5058318;28;45505;-75
2023/01/16 12:57:32;;;;;;;;;4.00;3.00;;;;;8.63;67.33;98100.25;5040897;28;45433;-74
2023/01/16 13:00:09;;;;;;;;;7.67;5.67;;;;;8.10;66.31;98018.66;5049460;28;45596;-74